Time;durP1;ratioP1;P1;durP2;ratioP2;P2;SDS_P1;SDS_P2;PMS_P1;PMS_P2;Temp;Humidity;BMP_temperature;BMP_pressure;BME280_temperature;BME280_humidity;BME280_pressure;Samples;Min_cycle;Max_cycle;Signal;HPM_P1;HPM_P2
2021/12/30 00:02:13;;;;;;;2.40;1.95;;;8.10;99.90;;;;;;5021136;28;20089;-82
2021/12/30 00:04:39;;;;;;;5.60;1.42;;;8.10;99.90;;;;;;5021293;28;20041;-81
2021/12/30 00:07:08;;;;;;;1.73;1.63;;;8.10;99.90;;;;;;5020175;28;20048;-82
2021/12/30 00:09:34;;;;;;;2.58;1.83;;;8.10;99.90;;;;;;5020477;28;20072;-82
2021/12/30 00:12:00;;;;;;;2.85;2.60;;;8.10;99.90;;;;;;5020507;28;20051;-82
2021/12/30 00:14:25;;;;;;;19.33;1.42;;;8.10;99.90;;;;;;5020999;28;20054;-81
2021/12/30 00:16:51;;;;;;;2.45;2.25;;;8.10;99.90;;;;;;5003897;28;20048;-82
2021/12/30 00:19:16;;;;;;;4.38;2.25;;;8.00;99.90;;;;;;4987116;28;20053;-81
2021/12/30 00:21:42;;;;;;;1.98;1.83;;;8.10;99.90;;;;;;5021314;28;20052;-82
2021/12/30 00:24:09;;;;;;;3.70;1.55;;;8.00;99.90;;;;;;5027664;28;20512;-81
2021/12/30 00:26:35;;;;;;;3.17;2.20;;;8.00;99.90;;;;;;5060575;28;20041;-82
2021/12/30 00:29:00;;;;;;;1.98;1.63;;;8.00;99.90;;;;;;5057097;28;20041;-82
2021/12/30 00:31:26;;;;;;;20.30;3.10;;;8.00;99.90;;;;;;5040260;28;20044;-82
2021/12/30 00:33:52;;;;;;;10.45;4.07;;;7.90;99.90;;;;;;5023242;28;20107;-82
2021/12/30 00:36:17;;;;;;;8.65;2.03;;;7.90;99.90;;;;;;5022925;28;20045;-82
2021/12/30 00:38:45;;;;;;;8.40;3.03;;;7.90;99.90;;;;;;5026292;28;20049;-82
2021/12/30 00:41:10;;;;;;;4.50;1.98;;;7.90;99.90;;;;;;5043370;28;20866;-82
2021/12/30 00:43:36;;;;;;;6.35;2.35;;;7.80;99.90;;;;;;5044384;28;20119;-82
2021/12/30 00:46:04;;;;;;;6.85;2.60;;;7.80;99.90;;;;;;5044304;28;20037;-82
2021/12/30 00:48:29;;;;;;;7.25;2.70;;;7.90;99.90;;;;;;5026456;28;20106;-82
2021/12/30 00:50:55;;;;;;;9.05;2.03;;;7.80;99.90;;;;;;5026326;28;20036;-82
2021/12/30 00:53:21;;;;;;;11.48;2.53;;;7.80;99.90;;;;;;5044851;28;20041;-82
2021/12/30 00:55:46;;;;;;;6.22;1.50;;;7.80;99.90;;;;;;5043564;28;20048;-82
2021/12/30 00:58:12;;;;;;;11.50;2.67;;;7.80;99.90;;;;;;5025894;28;20159;-82
2021/12/30 01:00:41;;;;;;;5.40;1.98;;;7.80;99.90;;;;;;5043938;28;20525;-82
2021/12/30 01:03:08;;;;;;;7.65;3.47;;;7.80;99.90;;;;;;5025041;28;20655;-82
2021/12/30 01:05:34;;;;;;;23.38;2.67;;;7.80;99.90;;;;;;5044498;28;20087;-82
2021/12/30 01:08:00;;;;;;;6.22;2.53;;;7.80;99.90;;;;;;5043762;28;20033;-81
2021/12/30 01:10:26;;;;;;;1.23;1.23;;;7.80;99.90;;;;;;5043217;28;20535;-82
2021/12/30 01:12:54;;;;;;;6.95;1.98;;;7.80;99.90;;;;;;5025765;28;20049;-83
2021/12/30 01:15:32;;;;;;;5.63;2.47;;;7.80;99.90;;;;;;5044725;28;20179;-82
2021/12/30 01:18:21;;;;;;;15.93;2.42;;;7.80;99.90;;;;;;5026084;28;20403;-82
2021/12/30 01:20:44;;;;;;;4.80;2.28;;;7.80;99.90;;;;;;5043581;28;20073;-82
2021/12/30 01:23:09;;;;;;;13.60;1.48;;;7.80;99.90;;;;;;5025808;28;20371;-82
2021/12/30 01:25:35;;;;;;;12.10;2.22;;;7.80;99.90;;;;;;5042043;28;20053;-84
2021/12/30 01:28:00;;;;;;;4.82;2.20;;;7.70;99.90;;;;;;5043323;28;20037;-84
2021/12/30 01:30:26;;;;;;;6.20;2.88;;;7.70;99.90;;;;;;5029019;28;20180;-84
2021/12/30 01:32:52;;;;;;;2.80;1.42;;;7.70;99.90;;;;;;5005420;28;20119;-84
2021/12/30 01:35:23;;;;;;;5.30;2.22;;;7.70;99.90;;;;;;5024323;28;20126;-84
2021/12/30 01:37:49;;;;;;;2.80;1.35;;;7.70;99.90;;;;;;5006365;28;20060;-83
2021/12/30 01:40:17;;;;;;;5.88;2.22;;;7.70;99.90;;;;;;5022569;28;20041;-83
2021/12/30 01:42:42;;;;;;;10.80;2.38;;;7.60;99.90;;;;;;5023532;28;20120;-84
2021/12/30 01:45:10;;;;;;;4.32;1.60;;;7.60;99.90;;;;;;5023807;28;20167;-84
2021/12/30 01:47:41;;;;;;;2.28;0.80;;;7.60;99.90;;;;;;5023261;28;20455;-84
2021/12/30 01:50:07;;;;;;;8.98;2.67;;;7.60;99.90;;;;;;5004230;28;20048;-84
2021/12/30 01:52:33;;;;;;;2.03;1.83;;;7.60;99.90;;;;;;5023122;28;20073;-84
2021/12/30 01:54:59;;;;;;;6.82;1.63;;;7.60;99.90;;;;;;5022613;28;20092;-84
2021/12/30 01:57:24;;;;;;;1.35;1.25;;;7.60;99.90;;;;;;5005247;28;20045;-85
2021/12/30 01:59:50;;;;;;;4.00;2.25;;;7.60;99.90;;;;;;5006162;28;20056;-83
2021/12/30 02:02:16;;;;;;;4.53;3.08;;;7.60;99.90;;;;;;5004836;28;20057;-84
2021/12/30 02:04:41;;;;;;;6.85;2.13;;;7.60;99.90;;;;;;5023057;28;20049;-84
2021/12/30 02:07:08;;;;;;;5.22;0.80;;;7.60;99.90;;;;;;5022827;23;20518;-83
2021/12/30 02:09:35;;;;;;;3.10;1.90;;;7.60;99.90;;;;;;5002010;28;20045;-83
2021/12/30 02:12:00;;;;;;;5.60;1.30;;;7.50;99.90;;;;;;5003154;28;20058;-83
2021/12/30 02:14:27;;;;;;;20.58;3.72;;;7.50;99.90;;;;;;5003288;28;20034;-83
2021/12/30 02:16:52;;;;;;;1.83;1.75;;;7.50;99.90;;;;;;5002878;28;20045;-82
2021/12/30 02:19:18;;;;;;;3.53;1.70;;;7.60;99.90;;;;;;5003193;28;20045;-84
2021/12/30 02:21:43;;;;;;;3.35;2.17;;;7.50;99.90;;;;;;5003518;28;20058;-84
2021/12/30 02:24:09;;;;;;;3.40;1.33;;;7.50;99.90;;;;;;5000842;28;20450;-84
2021/12/30 02:26:35;;;;;;;12.68;2.67;;;7.50;99.90;;;;;;4985858;28;20045;-84
2021/12/30 02:29:01;;;;;;;3.63;1.73;;;7.50;99.90;;;;;;4984854;28;20065;-83
2021/12/30 02:31:29;;;;;;;7.18;1.20;;;7.50;99.90;;;;;;4985385;28;20560;-84
2021/12/30 02:33:56;;;;;;;8.00;1.70;;;7.50;99.90;;;;;;4984989;28;20049;-83
2021/12/30 02:36:25;;;;;;;1.40;1.30;;;7.50;99.90;;;;;;5003238;28;20042;-79
2021/12/30 02:38:51;;;;;;;6.70;2.03;;;7.50;99.90;;;;;;4968706;28;20050;-82
2021/12/30 02:41:19;;;;;;;1.10;1.00;;;7.60;99.90;;;;;;5003094;28;20049;-82
2021/12/30 02:43:47;;;;;;;2.63;2.00;;;7.60;99.90;;;;;;4985152;28;20060;-82
2021/12/30 02:46:14;;;;;;;7.53;2.60;;;7.60;99.90;;;;;;5002460;28;20037;-83
2021/12/30 02:48:41;;;;;;;3.63;1.70;;;7.60;99.90;;;;;;5002778;28;20038;-82
2021/12/30 02:51:10;;;;;;;9.38;1.35;;;7.60;99.90;;;;;;5002550;28;20046;-83
2021/12/30 02:53:36;;;;;;;2.97;1.65;;;7.60;99.90;;;;;;5001470;28;20049;-83
2021/12/30 02:56:04;;;;;;;11.57;2.40;;;7.60;99.90;;;;;;5002429;28;20545;-83
2021/12/30 02:58:30;;;;;;;24.10;3.30;;;7.70;99.90;;;;;;5002083;28;20674;-82
2021/12/30 03:01:04;;;;;;;19.05;3.03;;;7.60;99.90;;;;;;5001190;28;20034;-83
2021/12/30 03:03:29;;;;;;;2.90;1.70;;;7.70;99.90;;;;;;5002200;28;20050;-83
2021/12/30 03:06:01;;;;;;;2.10;0.85;;;7.70;99.90;;;;;;5002380;28;20095;-82
2021/12/30 03:08:27;;;;;;;4.82;1.85;;;7.70;99.90;;;;;;5002246;28;20054;-83
2021/12/30 03:10:53;;;;;;;7.10;1.88;;;7.70;99.90;;;;;;4983969;28;20149;-83
2021/12/30 03:13:26;;;;;;;13.90;3.38;;;7.70;99.90;;;;;;5002669;28;20121;-82
2021/12/30 03:15:51;;;;;;;9.18;2.97;;;7.70;99.90;;;;;;4984682;28;20050;-79
2021/12/30 03:18:17;;;;;;;19.08;2.28;;;7.70;99.90;;;;;;5002986;28;20037;-82
2021/12/30 03:20:43;;;;;;;8.15;2.55;;;7.80;99.90;;;;;;4984424;28;20053;-83
2021/12/30 03:23:08;;;;;;;4.20;1.98;;;7.80;99.90;;;;;;5002298;28;20038;-83
2021/12/30 03:25:34;;;;;;;25.90;3.13;;;7.80;99.90;;;;;;5001377;28;20049;-82
2021/12/30 03:28:00;;;;;;;5.00;2.55;;;7.80;99.90;;;;;;5001225;28;20068;-82
2021/12/30 03:30:26;;;;;;;1.65;1.52;;;7.80;99.90;;;;;;5002545;28;20052;-82
2021/12/30 03:32:51;;;;;;;19.75;2.85;;;7.90;99.90;;;;;;5001629;28;20179;-79
2021/12/30 03:35:18;;;;;;;1.38;1.27;;;7.80;99.90;;;;;;5002743;28;20057;-82
2021/12/30 03:37:44;;;;;;;1.98;0.93;;;7.90;99.90;;;;;;5001700;28;20450;-82
2021/12/30 03:40:12;;;;;;;5.47;1.73;;;7.90;99.90;;;;;;5000960;28;20046;-82
2021/12/30 03:42:38;;;;;;;3.65;2.50;;;7.90;99.90;;;;;;5001663;28;20046;-81
2021/12/30 03:45:07;;;;;;;5.90;2.67;;;7.90;99.90;;;;;;5001680;28;20112;-82
2021/12/30 03:47:37;;;;;;;6.60;2.58;;;7.90;99.90;;;;;;5001611;28;20144;-82
2021/12/30 03:50:04;;;;;;;3.33;1.33;;;7.90;99.90;;;;;;5001731;28;20120;-82
2021/12/30 03:52:31;;;;;;;3.38;2.03;;;7.90;99.90;;;;;;5001664;28;20034;-82
2021/12/30 03:54:56;;;;;;;19.73;1.35;;;7.90;99.90;;;;;;5000742;28;20049;-82
2021/12/30 03:57:22;;;;;;;1.35;1.25;;;7.90;99.90;;;;;;5001486;28;20100;-82
2021/12/30 03:59:48;;;;;;;5.15;2.03;;;7.90;99.90;;;;;;5001555;28;20685;-82
2021/12/30 04:02:14;;;;;;;0.75;0.75;;;7.90;99.90;;;;;;4984017;28;20050;-81
2021/12/30 04:04:40;;;;;;;5.75;2.38;;;7.90;99.90;;;;;;5001150;28;20059;-82
2021/12/30 04:07:05;;;;;;;2.63;1.30;;;7.90;99.90;;;;;;5001257;28;20053;-81
2021/12/30 04:09:31;;;;;;;4.45;2.55;;;7.90;99.90;;;;;;4982967;28;20042;-82
2021/12/30 04:11:57;;;;;;;4.18;1.50;;;7.90;99.90;;;;;;5001709;28;20111;-82
2021/12/30 04:14:26;;;;;;;6.57;2.40;;;7.90;99.90;;;;;;4987726;28;20106;-81
2021/12/30 04:16:52;;;;;;;1.02;1.02;;;8.00;99.90;;;;;;5005653;28;20514;-80
2021/12/30 04:19:18;;;;;;;1.80;1.33;;;8.00;99.90;;;;;;5005597;28;20042;-82
2021/12/30 04:21:44;;;;;;;3.65;1.98;;;8.00;99.90;;;;;;5005441;28;20166;-82
2021/12/30 04:24:10;;;;;;;7.55;2.47;;;8.10;99.90;;;;;;4986685;28;20050;-81
2021/12/30 04:26:36;;;;;;;9.75;2.15;;;8.10;99.90;;;;;;5005522;28;20046;-81
2021/12/30 04:29:04;;;;;;;12.85;3.15;;;8.10;99.90;;;;;;5004860;28;20041;-82
2021/12/30 04:31:30;;;;;;;0.80;0.70;;;8.20;99.90;;;;;;4987858;28;20076;-82
2021/12/30 04:33:56;;;;;;;4.05;2.33;;;8.20;99.90;;;;;;5004941;28;20050;-81
2021/12/30 04:36:22;;;;;;;1.42;1.35;;;8.20;99.90;;;;;;5004833;28;20061;-82
2021/12/30 04:38:47;;;;;;;11.18;2.00;;;8.30;99.90;;;;;;5004859;28;20431;-81
2021/12/30 04:41:13;;;;;;;2.67;2.10;;;8.20;99.90;;;;;;5004674;28;20038;-81
2021/12/30 04:43:39;;;;;;;2.92;1.42;;;8.30;99.90;;;;;;4987711;28;20057;-81
2021/12/30 04:46:05;;;;;;;6.57;2.45;;;8.30;99.90;;;;;;4986756;28;20569;-81
2021/12/30 04:48:30;;;;;;;4.18;1.20;;;8.30;99.90;;;;;;4987544;28;20125;-82
2021/12/30 04:50:56;;;;;;;5.43;1.88;;;8.30;99.90;;;;;;4987215;28;20127;-81
2021/12/30 04:53:22;;;;;;;6.22;2.88;;;8.40;99.90;;;;;;5003539;28;20038;-81
2021/12/30 04:55:48;;;;;;;11.55;3.33;;;8.40;99.90;;;;;;5005485;28;20038;-81
2021/12/30 04:58:14;;;;;;;5.57;3.05;;;8.40;99.90;;;;;;5004610;28;20125;-82
2021/12/30 05:00:40;;;;;;;3.40;2.30;;;8.40;99.90;;;;;;5004912;28;20064;-81
2021/12/30 05:03:09;;;;;;;4.97;3.30;;;8.40;99.90;;;;;;5004003;28;20833;-82
2021/12/30 05:05:52;;;;;;;11.40;3.63;;;8.40;99.90;;;;;;5004254;28;20069;-81
2021/12/30 05:08:19;;;;;;;3.92;2.97;;;8.50;99.90;;;;;;5003655;28;20610;-81
2021/12/30 05:10:46;;;;;;;2.72;2.45;;;8.50;99.90;;;;;;4986928;28;20050;-82
2021/12/30 05:13:13;;;;;;;9.55;3.42;;;8.50;99.90;;;;;;5004501;28;20318;-81
2021/12/30 05:15:39;;;;;;;3.38;2.67;;;8.50;99.90;;;;;;5004412;28;20065;-82
2021/12/30 05:18:07;;;;;;;4.43;2.15;;;8.50;99.90;;;;;;4986696;28;20049;-84
2021/12/30 05:20:33;;;;;;;4.65;2.17;;;8.50;99.90;;;;;;5004094;28;20100;-85
2021/12/30 05:22:58;;;;;;;2.28;2.05;;;8.60;99.90;;;;;;5003980;28;20050;-85
2021/12/30 05:25:25;;;;;;;2.42;2.17;;;8.60;99.90;;;;;;5003275;28;20048;-85
2021/12/30 05:27:51;;;;;;;2.88;2.67;;;8.60;99.90;;;;;;5004975;28;20136;-85
2021/12/30 05:30:18;;;;;;;2.75;2.55;;;8.60;99.90;;;;;;5003843;28;20807;-85
2021/12/30 05:32:43;;;;;;;2.30;2.03;;;8.60;99.90;;;;;;4986660;28;20050;-85
2021/12/30 05:35:11;;;;;;;8.10;2.83;;;8.70;99.90;;;;;;4986100;28;20057;-85
2021/12/30 05:37:37;;;;;;;4.63;4.05;;;8.70;99.90;;;;;;5004213;28;20081;-85
2021/12/30 05:40:06;;;;;;;2.92;2.72;;;8.70;99.90;;;;;;5002589;28;20029;-85
2021/12/30 05:42:31;;;;;;;4.68;3.03;;;8.70;99.90;;;;;;5004317;28;20085;-85
2021/12/30 05:44:58;;;;;;;9.43;3.13;;;8.70;99.90;;;;;;4985744;28;20084;-85
2021/12/30 05:47:23;;;;;;;8.50;3.10;;;8.80;99.90;;;;;;5003885;28;20038;-84
2021/12/30 05:49:49;;;;;;;4.05;2.20;;;8.80;99.90;;;;;;4970278;28;20116;-85
2021/12/30 05:52:15;;;;;;;4.47;4.18;;;8.80;99.90;;;;;;4969861;28;20056;-85
2021/12/30 05:54:42;;;;;;;4.13;2.58;;;8.80;99.90;;;;;;4985761;28;20052;-85
2021/12/30 05:57:08;;;;;;;7.53;3.40;;;8.80;99.90;;;;;;5003130;28;20045;-85
2021/12/30 05:59:35;;;;;;;5.40;3.67;;;8.80;99.90;;;;;;5004149;28;20042;-85
2021/12/30 06:02:00;;;;;;;3.25;2.60;;;8.90;99.90;;;;;;5003192;28;20088;-85
2021/12/30 06:04:26;;;;;;;3.88;3.58;;;8.90;99.90;;;;;;4985294;28;20058;-85
2021/12/30 06:06:52;;;;;;;3.22;2.72;;;8.90;99.90;;;;;;5003346;28;20046;-81
2021/12/30 06:09:21;;;;;;;3.00;2.80;;;8.90;99.90;;;;;;5002683;28;20046;-85
2021/12/30 06:11:46;;;;;;;10.00;3.35;;;9.00;99.90;;;;;;4986152;28;20054;-84
2021/12/30 06:14:12;;;;;;;4.32;2.90;;;9.00;99.90;;;;;;4985919;28;20708;-85
2021/12/30 06:16:37;;;;;;;2.65;2.45;;;9.00;99.90;;;;;;4969602;28;20037;-84
2021/12/30 06:19:03;;;;;;;2.60;2.40;;;9.00;99.90;;;;;;4969128;28;20466;-85
2021/12/30 06:21:28;;;;;;;2.38;2.17;;;9.10;99.90;;;;;;5003038;28;20236;-85
2021/12/30 06:23:54;;;;;;;7.10;3.15;;;9.10;99.90;;;;;;5001857;28;20122;-85
2021/12/30 06:26:19;;;;;;;2.95;2.75;;;9.20;99.90;;;;;;4985970;28;20050;-85
2021/12/30 06:28:45;;;;;;;2.42;2.17;;;9.20;99.90;;;;;;4985600;28;20124;-84
2021/12/30 06:31:11;;;;;;;3.60;3.20;;;9.20;99.90;;;;;;4984834;28;20396;-85
2021/12/30 06:33:36;;;;;;;8.95;2.65;;;9.20;99.90;;;;;;5002945;28;20034;-85
2021/12/30 06:36:04;;;;;;;2.67;2.45;;;9.20;99.90;;;;;;5002111;28;20534;-85
2021/12/30 06:38:29;;;;;;;2.80;2.63;;;9.20;99.90;;;;;;4984932;28;20058;-85
2021/12/30 06:40:55;;;;;;;2.80;2.40;;;9.30;99.90;;;;;;5001174;28;20042;-85
2021/12/30 06:43:21;;;;;;;4.20;2.00;;;9.30;99.90;;;;;;4985896;28;20037;-85
2021/12/30 06:45:46;;;;;;;1.75;1.58;;;9.30;99.90;;;;;;5002935;28;20042;-85
2021/12/30 06:48:14;;;;;;;2.53;2.00;;;9.30;99.90;;;;;;5002133;28;20790;-85
2021/12/30 06:50:41;;;;;;;2.25;2.03;;;9.30;99.90;;;;;;4985506;28;20058;-85
2021/12/30 06:53:07;;;;;;;1.45;1.35;;;9.30;99.90;;;;;;5001057;28;20709;-86
2021/12/30 06:55:32;;;;;;;2.22;1.90;;;9.40;99.90;;;;;;4985435;28;20065;-85
2021/12/30 06:57:58;;;;;;;2.15;2.03;;;9.40;99.90;;;;;;4968158;28;20052;-85
2021/12/30 07:00:24;;;;;;;3.92;1.73;;;9.40;99.90;;;;;;5002437;28;20124;-85
2021/12/30 07:02:50;;;;;;;2.28;2.05;;;9.40;99.90;;;;;;5003206;28;20045;-85
2021/12/30 07:05:15;;;;;;;0.93;0.93;;;9.40;99.90;;;;;;4967739;28;20046;-85
2021/12/30 07:07:43;;;;;;;1.67;1.58;;;9.50;99.90;;;;;;4984979;28;20108;-85
2021/12/30 07:10:09;;;;;;;2.67;2.42;;;9.50;99.90;;;;;;4983155;28;20053;-85
2021/12/30 07:12:36;;;;;;;1.67;1.58;;;9.50;99.90;;;;;;4968930;28;20034;-85
2021/12/30 07:15:04;;;;;;;1.38;1.15;;;9.50;99.90;;;;;;4984764;28;20057;-84
2021/12/30 07:17:31;;;;;;;2.42;1.08;;;9.50;99.90;;;;;;4985086;28;20042;-85
2021/12/30 07:19:57;;;;;;;1.65;1.55;;;9.60;99.90;;;;;;4984192;28;20050;-85
2021/12/30 07:22:23;;;;;;;1.40;1.30;;;9.60;99.90;;;;;;4984601;28;20073;-84
2021/12/30 07:24:49;;;;;;;1.23;1.17;;;9.70;99.90;;;;;;5001371;28;20800;-85
2021/12/30 07:27:14;;;;;;;2.22;1.60;;;9.70;99.90;;;;;;4984546;28;20481;-85
2021/12/30 07:29:40;;;;;;;1.55;1.45;;;9.70;99.90;;;;;;4997166;28;20042;-85
2021/12/30 07:32:06;;;;;;;1.08;1.02;;;9.70;99.90;;;;;;4997260;28;20035;-85
2021/12/30 07:34:31;;;;;;;1.77;1.17;;;9.70;99.90;;;;;;4981700;28;20057;-85
2021/12/30 07:36:57;;;;;;;0.75;0.75;;;9.70;99.90;;;;;;4980618;28;20088;-85
2021/12/30 07:39:23;;;;;;;1.48;1.38;;;9.80;99.90;;;;;;4980499;28;20138;-85
2021/12/30 07:41:48;;;;;;;1.52;1.42;;;9.80;99.90;;;;;;4981435;28;20058;-85
2021/12/30 07:44:15;;;;;;;1.48;1.38;;;9.80;99.90;;;;;;4964583;28;20046;-85
2021/12/30 07:46:41;;;;;;;1.13;0.98;;;9.90;99.90;;;;;;4979826;28;20108;-86
2021/12/30 07:49:06;;;;;;;1.38;1.38;;;9.80;99.90;;;;;;4981368;28;20738;-85
2021/12/30 07:51:32;;;;;;;1.30;1.20;;;9.80;99.90;;;;;;4981023;28;20522;-85
2021/12/30 07:53:58;;;;;;;1.48;1.20;;;9.90;99.90;;;;;;4980346;28;20038;-84
2021/12/30 07:56:23;;;;;;;1.80;1.40;;;9.90;99.90;;;;;;4981904;28;20484;-85
2021/12/30 07:58:49;;;;;;;1.20;0.95;;;9.90;99.90;;;;;;4982247;28;20185;-85
2021/12/30 08:01:14;;;;;;;14.43;1.58;;;9.90;99.90;;;;;;4964164;28;20507;-86
2021/12/30 08:03:40;;;;;;;0.70;0.70;;;9.90;99.90;;;;;;4982561;28;20599;-85
2021/12/30 08:06:05;;;;;;;1.33;1.23;;;9.90;99.90;;;;;;4979712;28;20136;-84
2021/12/30 08:08:31;;;;;;;3.20;1.48;;;9.90;99.90;;;;;;4979113;28;20047;-84
2021/12/30 08:10:57;;;;;;;1.05;0.82;;;10.00;99.90;;;;;;4964262;28;20061;-84
2021/12/30 08:13:23;;;;;;;2.25;1.10;;;10.00;99.90;;;;;;4980418;28;20047;-85
2021/12/30 08:15:49;;;;;;;1.83;1.73;;;10.00;99.90;;;;;;4997070;28;20050;-85
2021/12/30 08:18:15;;;;;;;0.93;0.93;;;10.00;99.90;;;;;;4998221;28;20447;-87
2021/12/30 08:20:40;;;;;;;0.50;0.50;;;10.10;99.90;;;;;;4984098;28;20153;-86
2021/12/30 08:23:06;;;;;;;0.93;0.93;;;10.10;99.90;;;;;;4982868;28;20050;-86
2021/12/30 08:25:32;;;;;;;1.10;0.80;;;10.10;99.90;;;;;;4983577;28;20041;-86
2021/12/30 08:27:57;;;;;;;1.13;1.13;;;10.10;99.90;;;;;;5001160;28;20057;-85
2021/12/30 08:30:23;;;;;;;1.27;1.27;;;10.10;99.90;;;;;;4996809;28;20053;-85
2021/12/30 08:32:50;;;;;;;0.98;0.95;;;10.10;99.90;;;;;;4982654;28;20046;-85
2021/12/30 08:35:17;;;;;;;1.35;1.27;;;10.10;99.90;;;;;;4980207;28;20060;-85
2021/12/30 08:37:43;;;;;;;0.90;0.90;;;10.20;99.90;;;;;;4980976;28;20046;-85
2021/12/30 08:40:10;;;;;;;1.25;1.15;;;10.20;99.90;;;;;;4981369;28;20046;-86
2021/12/30 08:42:37;;;;;;;2.42;0.90;;;10.20;99.90;;;;;;4981504;28;20038;-86
2021/12/30 08:45:04;;;;;;;2.75;0.45;;;10.30;99.90;;;;;;4981422;28;20042;-85
2021/12/30 08:47:33;;;;;;;2.47;1.50;;;10.30;99.90;;;;;;4980575;28;20046;-84
2021/12/30 08:49:59;;;;;;;0.63;0.63;;;10.30;99.90;;;;;;4981159;28;20358;-83
2021/12/30 08:52:27;;;;;;;0.28;0.28;;;10.30;99.90;;;;;;4981883;28;20038;-84
2021/12/30 08:54:55;;;;;;;2.47;0.55;;;10.30;99.90;;;;;;4978517;28;20074;-85
2021/12/30 08:57:22;;;;;;;1.45;1.35;;;10.30;99.90;;;;;;4979884;28;20409;-85
2021/12/30 08:59:47;;;;;;;0.40;0.40;;;10.40;99.90;;;;;;4983036;28;20047;-85
2021/12/30 09:02:13;;;;;;;0.40;0.40;;;10.40;99.90;;;;;;4986309;28;20045;-85
2021/12/30 09:04:42;;;;;;;0.25;0.25;;;10.40;99.90;;;;;;5004809;28;20076;-91
2021/12/30 09:07:09;;;;;;;0.73;0.50;;;10.40;99.90;;;;;;4970106;28;20089;-84
2021/12/30 09:09:34;;;;;;;0.32;0.32;;;10.40;99.90;;;;;;5002935;28;20137;-84
2021/12/30 09:12:00;;;;;;;5.38;1.30;;;10.50;99.90;;;;;;4970105;28;20470;-84
2021/12/30 09:14:29;;;;;;;0.40;0.40;;;10.50;99.90;;;;;;5004398;28;20042;-92
2021/12/30 09:16:58;;;;;;;0.88;0.57;;;10.50;99.90;;;;;;4970484;28;20048;-79
2021/12/30 09:19:23;;;;;;;1.33;0.95;;;10.50;99.90;;;;;;5002537;28;20516;-79
2021/12/30 09:21:49;;;;;;;0.57;0.57;;;10.50;99.90;;;;;;4986857;28;20472;-78
2021/12/30 09:24:14;;;;;;;2.28;1.20;;;10.50;99.90;;;;;;4985448;28;20381;-78
2021/12/30 09:26:40;;;;;;;1.15;1.15;;;10.50;99.90;;;;;;5002222;28;20042;-78
2021/12/30 09:29:10;;;;;;;3.08;1.08;;;10.50;99.90;;;;;;5002940;28;20046;-78
2021/12/30 09:31:41;;;;;;;7.03;0.68;;;10.50;99.90;;;;;;5003549;28;20045;-78
2021/12/30 09:34:07;;;;;;;0.55;0.55;;;10.60;99.90;;;;;;4986348;28;20053;-78
2021/12/30 09:36:33;;;;;;;0.75;0.75;;;10.60;99.90;;;;;;4986170;28;20046;-78
2021/12/30 09:38:59;;;;;;;2.83;0.32;;;10.60;99.90;;;;;;4984724;28;20060;-78
2021/12/30 09:41:25;;;;;;;2.08;1.20;;;10.60;99.90;;;;;;5004059;28;20481;-78
2021/12/30 09:43:51;;;;;;;0.50;0.50;;;10.60;99.90;;;;;;4986718;28;20060;-78
2021/12/30 09:46:17;;;;;;;0.88;0.88;;;10.60;99.90;;;;;;4986404;28;20816;-78
2021/12/30 09:48:43;;;;;;;0.17;0.17;;;10.60;99.90;;;;;;4986089;28;20049;-78
2021/12/30 09:51:09;;;;;;;0.70;0.70;;;10.70;99.90;;;;;;4985134;28;20057;-78
2021/12/30 09:53:35;;;;;;;4.93;1.65;;;10.70;99.90;;;;;;5002687;28;20459;-78
2021/12/30 09:56:01;;;;;;;2.78;0.75;;;10.70;99.90;;;;;;4985885;28;20061;-78
2021/12/30 09:58:27;;;;;;;0.90;0.85;;;10.70;99.90;;;;;;5003429;28;20092;-78
2021/12/30 10:00:54;;;;;;;0.28;0.28;;;10.70;99.90;;;;;;4985115;28;20472;-78
2021/12/30 10:03:20;;;;;;;9.05;1.45;;;10.70;99.90;;;;;;4984275;28;20045;-78
2021/12/30 10:05:46;;;;;;;0.30;0.30;;;10.70;99.90;;;;;;4984903;28;20038;-78
2021/12/30 10:08:24;;;;;;;0.70;0.70;;;10.70;99.90;;;;;;5001162;28;20057;-78
2021/12/30 10:10:55;;;;;;;3.35;0.93;;;10.70;99.90;;;;;;4984789;28;20587;-78
2021/12/30 10:13:23;;;;;;;2.60;1.00;;;10.70;99.90;;;;;;4984663;28;20045;-77
2021/12/30 10:15:55;;;;;;;0.60;0.60;;;10.70;99.90;;;;;;4968200;28;20584;-78
2021/12/30 10:18:22;;;;;;;;;;;10.80;99.90;;;;;;4984808;28;20086;-78
2021/12/30 10:20:48;;;;;;;0.43;0.43;;;10.80;99.90;;;;;;4986117;28;20502;-78
2021/12/30 10:23:24;;;;;;;0.30;0.30;;;10.80;99.90;;;;;;5001412;28;20033;-78
2021/12/30 10:25:53;;;;;;;0.25;0.25;;;10.80;99.90;;;;;;5002365;28;20125;-78
2021/12/30 10:28:36;;;;;;;0.43;0.43;;;10.80;99.90;;;;;;4984657;28;20433;-78
2021/12/30 10:31:16;;;;;;;1.75;0.73;;;10.80;99.90;;;;;;5001566;28;20463;-79
2021/12/30 10:33:48;;;;;;;0.60;0.60;;;10.80;99.90;;;;;;4985021;28;20096;-78
2021/12/30 10:36:22;;;;;;;1.13;1.05;;;10.80;99.90;;;;;;4984288;28;20060;-78
2021/12/30 10:38:48;;;;;;;1.75;0.88;;;10.80;99.90;;;;;;4983436;28;20125;-79
2021/12/30 10:41:14;;;;;;;1.38;1.30;;;10.80;99.90;;;;;;4983669;28;20113;-78
2021/12/30 10:46:10;;;;;;;2.13;1.42;;;10.80;99.90;;;;;;5002334;28;20075;-79
2021/12/30 10:48:56;;;;;;;1.48;1.33;;;10.80;99.90;;;;;;4983948;28;20038;-79
2021/12/30 10:51:28;;;;;;;2.78;1.23;;;10.80;99.90;;;;;;4983740;28;20046;-78
2021/12/30 10:53:55;;;;;;;14.63;1.65;;;10.90;99.90;;;;;;5000377;28;20460;-78
2021/12/30 10:56:25;;;;;;;2.50;1.65;;;10.90;99.90;;;;;;5002886;28;20077;-79
2021/12/30 10:58:53;;;;;;;2.17;1.30;;;10.90;99.90;;;;;;5002004;28;20584;-78
2021/12/30 11:01:21;;;;;;;2.42;1.23;;;10.90;99.90;;;;;;5002811;28;20050;-78
2021/12/30 11:04:00;;;;;;;7.10;1.95;;;10.80;99.90;;;;;;4984568;28;20084;-78
2021/12/30 11:06:27;;;;;;;4.45;2.28;;;10.90;99.90;;;;;;4983097;28;20587;-80
2021/12/30 11:09:13;;;;;;;4.38;2.58;;;10.90;99.90;;;;;;4999591;28;20046;-79
2021/12/30 11:12:06;;;;;;;5.82;2.65;;;10.90;99.90;;;;;;5002520;28;20046;-92
2021/12/30 11:14:36;;;;;;;4.03;1.20;;;10.80;99.90;;;;;;4972520;28;20050;-89
2021/12/30 11:17:07;;;;;;;1.33;1.27;;;10.90;99.90;;;;;;4968828;28;20084;-84
2021/12/30 11:19:43;;;;;;;1.02;0.95;;;10.90;99.90;;;;;;4982548;28;20038;-87
2021/12/30 11:22:14;;;;;;;0.77;0.65;;;10.90;99.90;;;;;;4981015;28;20054;-87
2021/12/30 11:24:44;;;;;;;2.40;1.52;;;10.90;99.90;;;;;;4977922;28;20049;-87
2021/12/30 11:27:13;;;;;;;3.55;1.10;;;10.90;99.90;;;;;;4984988;28;20153;-83
2021/12/30 11:29:43;;;;;;;5.45;2.03;;;10.90;99.90;;;;;;5001527;28;20050;-83
2021/12/30 11:32:09;;;;;;;1.33;1.23;;;10.90;99.90;;;;;;4983572;28;20129;-83
2021/12/30 11:34:36;;;;;;;11.93;2.08;;;10.90;99.90;;;;;;5001840;28;20163;-83
2021/12/30 11:37:03;;;;;;;15.07;2.58;;;10.90;99.90;;;;;;5001459;28;20053;-83
2021/12/30 11:39:29;;;;;;;5.43;2.08;;;10.90;99.90;;;;;;5000996;28;20056;-83
2021/12/30 11:41:57;;;;;;;2.13;1.55;;;10.90;99.90;;;;;;5001046;28;20037;-82
2021/12/30 11:44:44;;;;;;;3.78;0.90;;;10.90;99.90;;;;;;4981168;28;20129;-83
2021/12/30 11:47:33;;;;;;;3.33;1.58;;;10.90;99.90;;;;;;4998405;28;20057;-83
2021/12/30 11:50:07;;;;;;;0.90;0.90;;;10.90;99.90;;;;;;4982997;28;20054;-82
2021/12/30 11:52:53;;;;;;;0.60;0.55;;;10.90;99.90;;;;;;4983263;28;20050;-83
2021/12/30 11:55:41;;;;;;;6.63;1.75;;;10.90;99.90;;;;;;4983883;28;20747;-83
2021/12/30 11:58:28;;;;;;;1.60;1.42;;;10.90;99.90;;;;;;4996186;28;20092;-81
2021/12/30 12:01:00;;;;;;;2.53;1.52;;;10.90;99.90;;;;;;4970398;28;20492;-83
2021/12/30 12:03:35;;;;;;;8.45;1.30;;;10.90;99.90;;;;;;4973289;28;20251;-81
2021/12/30 12:06:04;;;;;;;2.05;1.95;;;10.90;99.90;;;;;;4976891;28;20046;-80
2021/12/30 12:08:41;;;;;;;1.38;1.27;;;10.90;99.90;;;;;;4980447;28;20077;-81
2021/12/30 12:11:20;;;;;;;1.05;1.05;;;10.90;99.90;;;;;;4981741;28;20400;-81
2021/12/30 12:13:48;;;;;;;2.10;1.35;;;10.90;99.90;;;;;;4983303;28;20619;-80
2021/12/30 12:16:16;;;;;;;1.48;1.42;;;11.00;99.90;;;;;;4983434;28;20058;-80
2021/12/30 12:19:05;;;;;;;1.77;1.52;;;11.00;99.90;;;;;;4999022;28;20056;-82
2021/12/30 12:21:57;;;;;;;3.10;2.28;;;11.10;99.90;;;;;;4974385;28;20034;-85
2021/12/30 12:24:25;;;;;;;2.15;1.65;;;11.00;99.90;;;;;;4994423;28;20049;-79
2021/12/30 12:27:08;;;;;;;0.85;0.68;;;11.10;99.90;;;;;;4980705;28;20054;-85
2021/12/30 12:29:42;;;;;;;2.88;2.67;;;11.10;99.90;;;;;;4996596;28;20046;-81
2021/12/30 12:32:18;;;;;;;1.90;1.65;;;11.10;99.90;;;;;;4964160;28;20042;-81
2021/12/30 12:34:50;;;;;;;1.08;1.05;;;11.10;99.90;;;;;;5001569;28;20038;-80
2021/12/30 12:37:36;;;;;;;3.83;1.73;;;11.10;99.90;;;;;;5000758;28;20073;-82
2021/12/30 12:40:12;;;;;;;3.03;0.70;;;11.10;99.90;;;;;;4985486;28;20061;-84
2021/12/30 12:42:50;;;;;;;3.92;2.38;;;11.10;99.90;;;;;;4985634;28;20464;-83
2021/12/30 12:45:17;;;;;;;1.30;1.30;;;11.10;99.90;;;;;;5000916;28;20046;-82
2021/12/30 12:47:44;;;;;;;20.17;1.92;;;11.10;99.90;;;;;;4979863;28;20220;-82
2021/12/30 12:50:09;;;;;;;3.40;1.85;;;11.10;99.90;;;;;;5002148;28;20046;-81
2021/12/30 12:52:46;;;;;;;0.85;0.85;;;11.10;99.90;;;;;;4967131;28;20034;-80
2021/12/30 12:55:17;;;;;;;2.45;1.63;;;11.10;99.90;;;;;;5000761;28;20052;-81
2021/12/30 12:57:42;;;;;;;1.70;1.25;;;11.10;99.90;;;;;;4999580;28;20535;-80
2021/12/30 13:00:09;;;;;;;6.57;1.45;;;11.10;99.90;;;;;;4982643;28;20062;-80